sensor_id;sensor_type;location;lat;lon;timestamp;P1;durP1;ratioP1;P2;durP2;ratioP2
64297;SDS011;50639;53.270;7.956;2023-02-15T00:01:43;9.65;;;7.25;;
64297;SDS011;50639;53.270;7.956;2023-02-15T00:04:10;9.30;;;6.38;;
64297;SDS011;50639;53.270;7.956;2023-02-15T00:06:38;38.45;;;9.18;;
64297;SDS011;50639;53.270;7.956;2023-02-15T00:09:03;14.48;;;9.93;;
64297;SDS011;50639;53.270;7.956;2023-02-15T00:11:29;129.82;;;12.73;;
64297;SDS011;50639;53.270;7.956;2023-02-15T00:16:34;11.25;;;7.90;;
64297;SDS011;50639;53.270;7.956;2023-02-15T00:19:00;13.07;;;9.50;;
64297;SDS011;50639;53.270;7.956;2023-02-15T00:21:27;12.68;;;9.20;;
64297;SDS011;50639;53.270;7.956;2023-02-15T00:23:55;10.85;;;8.07;;
64297;SDS011;50639;53.270;7.956;2023-02-15T00:26:21;17.17;;;10.25;;
64297;SDS011;50639;53.270;7.956;2023-02-15T00:28:47;10.10;;;7.13;;
64297;SDS011;50639;53.270;7.956;2023-02-15T00:31:13;11.48;;;7.95;;
64297;SDS011;50639;53.270;7.956;2023-02-15T00:33:39;14.20;;;7.90;;
64297;SDS011;50639;53.270;7.956;2023-02-15T00:36:05;10.63;;;7.68;;
64297;SDS011;50639;53.270;7.956;2023-02-15T00:38:33;10.07;;;7.22;;
64297;SDS011;50639;53.270;7.956;2023-02-15T00:40:59;16.15;;;9.57;;
64297;SDS011;50639;53.270;7.956;2023-02-15T00:45:52;11.38;;;8.43;;
64297;SDS011;50639;53.270;7.956;2023-02-15T00:48:18;10.48;;;7.65;;
64297;SDS011;50639;53.270;7.956;2023-02-15T00:50:56;12.32;;;8.65;;
64297;SDS011;50639;53.270;7.956;2023-02-15T00:53:23;11.57;;;7.88;;
64297;SDS011;50639;53.270;7.956;2023-02-15T00:55:51;14.50;;;8.43;;
64297;SDS011;50639;53.270;7.956;2023-02-15T00:58:17;12.20;;;7.97;;
64297;SDS011;50639;53.270;7.956;2023-02-15T01:00:44;11.57;;;7.75;;
64297;SDS011;50639;53.270;7.956;2023-02-15T01:03:12;23.73;;;9.25;;
64297;SDS011;50639;53.270;7.956;2023-02-15T01:05:41;15.40;;;8.98;;
64297;SDS011;50639;53.270;7.956;2023-02-15T01:08:06;44.58;;;11.95;;
64297;SDS011;50639;53.270;7.956;2023-02-15T01:10:33;21.70;;;10.98;;
64297;SDS011;50639;53.270;7.956;2023-02-15T01:12:59;21.50;;;9.77;;
64297;SDS011;50639;53.270;7.956;2023-02-15T01:15:25;221.10;;;15.75;;
64297;SDS011;50639;53.270;7.956;2023-02-15T01:17:51;47.05;;;9.13;;
64297;SDS011;50639;53.270;7.956;2023-02-15T01:20:19;13.67;;;6.67;;
64297;SDS011;50639;53.270;7.956;2023-02-15T01:22:48;77.68;;;9.35;;
64297;SDS011;50639;53.270;7.956;2023-02-15T01:25:18;113.38;;;10.43;;
64297;SDS011;50639;53.270;7.956;2023-02-15T01:27:45;44.80;;;10.15;;
64297;SDS011;50639;53.270;7.956;2023-02-15T01:30:12;23.77;;;9.07;;
64297;SDS011;50639;53.270;7.956;2023-02-15T01:32:38;98.03;;;11.40;;
64297;SDS011;50639;53.270;7.956;2023-02-15T01:35:04;41.05;;;10.32;;
64297;SDS011;50639;53.270;7.956;2023-02-15T01:37:30;83.68;;;14.18;;
64297;SDS011;50639;53.270;7.956;2023-02-15T01:39:57;14.48;;;9.07;;
64297;SDS011;50639;53.270;7.956;2023-02-15T01:42:23;92.00;;;14.23;;
64297;SDS011;50639;53.270;7.956;2023-02-15T01:44:51;57.63;;;14.45;;
64297;SDS011;50639;53.270;7.956;2023-02-15T01:49:54;117.47;;;14.23;;
64297;SDS011;50639;53.270;7.956;2023-02-15T01:52:26;42.85;;;12.07;;
64297;SDS011;50639;53.270;7.956;2023-02-15T01:54:53;19.77;;;10.52;;
64297;SDS011;50639;53.270;7.956;2023-02-15T01:57:19;87.13;;;13.35;;
64297;SDS011;50639;53.270;7.956;2023-02-15T01:59:51;99.57;;;11.70;;
64297;SDS011;50639;53.270;7.956;2023-02-15T02:02:21;114.00;;;15.43;;
64297;SDS011;50639;53.270;7.956;2023-02-15T02:04:52;64.68;;;15.55;;
64297;SDS011;50639;53.270;7.956;2023-02-15T02:07:26;54.75;;;15.98;;
64297;SDS011;50639;53.270;7.956;2023-02-15T02:09:54;40.63;;;15.57;;
64297;SDS011;50639;53.270;7.956;2023-02-15T02:12:22;20.70;;;10.63;;
64297;SDS011;50639;53.270;7.956;2023-02-15T02:14:49;37.47;;;14.93;;
64297;SDS011;50639;53.270;7.956;2023-02-15T02:33:41;96.88;;;13.93;;
64297;SDS011;50639;53.270;7.956;2023-02-15T02:39:12;24.75;;;10.68;;
64297;SDS011;50639;53.270;7.956;2023-02-15T02:46:50;33.72;;;11.50;;
64297;SDS011;50639;53.270;7.956;2023-02-15T02:49:30;18.65;;;10.18;;
64297;SDS011;50639;53.270;7.956;2023-02-15T02:52:33;13.77;;;9.50;;
64297;SDS011;50639;53.270;7.956;2023-02-15T02:55:11;36.28;;;14.07;;
64297;SDS011;50639;53.270;7.956;2023-02-15T02:58:12;13.13;;;9.25;;
64297;SDS011;50639;53.270;7.956;2023-02-15T03:00:44;25.42;;;12.55;;
64297;SDS011;50639;53.270;7.956;2023-02-15T03:03:20;50.08;;;12.95;;
64297;SDS011;50639;53.270;7.956;2023-02-15T03:08:19;13.98;;;10.40;;
64297;SDS011;50639;53.270;7.956;2023-02-15T03:13:18;20.50;;;10.68;;
64297;SDS011;50639;53.270;7.956;2023-02-15T03:15:46;55.38;;;13.68;;
64297;SDS011;50639;53.270;7.956;2023-02-15T03:18:36;25.58;;;11.68;;
64297;SDS011;50639;53.270;7.956;2023-02-15T03:21:07;53.05;;;14.40;;
64297;SDS011;50639;53.270;7.956;2023-02-15T03:23:35;20.42;;;10.38;;
64297;SDS011;50639;53.270;7.956;2023-02-15T03:26:03;26.25;;;13.82;;
64297;SDS011;50639;53.270;7.956;2023-02-15T03:28:34;22.08;;;10.95;;
64297;SDS011;50639;53.270;7.956;2023-02-15T03:31:04;17.05;;;9.80;;
64297;SDS011;50639;53.270;7.956;2023-02-15T03:33:32;15.38;;;8.57;;
64297;SDS011;50639;53.270;7.956;2023-02-15T03:36:02;35.22;;;13.48;;
64297;SDS011;50639;53.270;7.956;2023-02-15T03:41:39;10.85;;;8.25;;
64297;SDS011;50639;53.270;7.956;2023-02-15T03:44:23;17.15;;;9.95;;
64297;SDS011;50639;53.270;7.956;2023-02-15T03:47:06;18.58;;;11.75;;
64297;SDS011;50639;53.270;7.956;2023-02-15T03:52:21;52.88;;;13.07;;
64297;SDS011;50639;53.270;7.956;2023-02-15T03:54:48;36.23;;;12.67;;
64297;SDS011;50639;53.270;7.956;2023-02-15T03:57:48;45.13;;;9.30;;
64297;SDS011;50639;53.270;7.956;2023-02-15T04:00:25;15.65;;;8.18;;
64297;SDS011;50639;53.270;7.956;2023-02-15T04:03:20;32.22;;;12.00;;
64297;SDS011;50639;53.270;7.956;2023-02-15T04:05:56;40.92;;;9.77;;
64297;SDS011;50639;53.270;7.956;2023-02-15T04:08:21;13.02;;;8.88;;
64297;SDS011;50639;53.270;7.956;2023-02-15T04:11:07;47.58;;;13.70;;
64297;SDS011;50639;53.270;7.956;2023-02-15T04:13:33;30.45;;;11.05;;
64297;SDS011;50639;53.270;7.956;2023-02-15T04:15:59;37.88;;;12.15;;
64297;SDS011;50639;53.270;7.956;2023-02-15T04:18:37;27.05;;;11.07;;
64297;SDS011;50639;53.270;7.956;2023-02-15T04:21:23;12.70;;;9.38;;
64297;SDS011;50639;53.270;7.956;2023-02-15T04:24:09;21.70;;;10.50;;
64297;SDS011;50639;53.270;7.956;2023-02-15T04:26:53;15.93;;;11.30;;
64297;SDS011;50639;53.270;7.956;2023-02-15T04:29:19;16.05;;;9.73;;
64297;SDS011;50639;53.270;7.956;2023-02-15T04:31:46;12.30;;;8.88;;
64297;SDS011;50639;53.270;7.956;2023-02-15T04:34:12;12.15;;;8.20;;
64297;SDS011;50639;53.270;7.956;2023-02-15T04:36:38;18.45;;;10.27;;
64297;SDS011;50639;53.270;7.956;2023-02-15T04:39:04;16.77;;;8.98;;
64297;SDS011;50639;53.270;7.956;2023-02-15T04:41:31;11.10;;;8.00;;
64297;SDS011;50639;53.270;7.956;2023-02-15T04:43:57;17.55;;;9.70;;
64297;SDS011;50639;53.270;7.956;2023-02-15T04:46:22;26.13;;;11.52;;
64297;SDS011;50639;53.270;7.956;2023-02-15T04:48:48;63.42;;;14.10;;
64297;SDS011;50639;53.270;7.956;2023-02-15T04:51:14;15.55;;;10.80;;
64297;SDS011;50639;53.270;7.956;2023-02-15T04:53:39;19.27;;;10.00;;
64297;SDS011;50639;53.270;7.956;2023-02-15T04:56:04;17.67;;;9.85;;
64297;SDS011;50639;53.270;7.956;2023-02-15T04:58:30;17.48;;;9.38;;
64297;SDS011;50639;53.270;7.956;2023-02-15T05:00:56;14.18;;;8.45;;
64297;SDS011;50639;53.270;7.956;2023-02-15T05:03:22;20.13;;;10.77;;
64297;SDS011;50639;53.270;7.956;2023-02-15T05:05:48;13.85;;;9.88;;
64297;SDS011;50639;53.270;7.956;2023-02-15T05:08:14;25.90;;;11.50;;
64297;SDS011;50639;53.270;7.956;2023-02-15T05:10:39;20.08;;;10.68;;
64297;SDS011;50639;53.270;7.956;2023-02-15T05:13:05;43.95;;;12.20;;
64297;SDS011;50639;53.270;7.956;2023-02-15T05:15:30;49.80;;;10.35;;
64297;SDS011;50639;53.270;7.956;2023-02-15T05:17:56;10.32;;;7.45;;
64297;SDS011;50639;53.270;7.956;2023-02-15T05:20:21;90.63;;;10.85;;
64297;SDS011;50639;53.270;7.956;2023-02-15T05:22:46;53.05;;;9.48;;
64297;SDS011;50639;53.270;7.956;2023-02-15T05:25:12;15.30;;;8.15;;
64297;SDS011;50639;53.270;7.956;2023-02-15T05:27:56;29.42;;;11.73;;
64297;SDS011;50639;53.270;7.956;2023-02-15T05:30:40;17.73;;;10.23;;
64297;SDS011;50639;53.270;7.956;2023-02-15T05:33:06;52.58;;;17.88;;
64297;SDS011;50639;53.270;7.956;2023-02-15T05:35:32;48.65;;;15.90;;
64297;SDS011;50639;53.270;7.956;2023-02-15T05:37:59;26.60;;;11.85;;
64297;SDS011;50639;53.270;7.956;2023-02-15T05:40:24;30.85;;;12.73;;
64297;SDS011;50639;53.270;7.956;2023-02-15T05:42:50;13.52;;;9.02;;
64297;SDS011;50639;53.270;7.956;2023-02-15T05:45:15;13.32;;;8.15;;
64297;SDS011;50639;53.270;7.956;2023-02-15T05:47:41;17.52;;;9.48;;
64297;SDS011;50639;53.270;7.956;2023-02-15T05:50:09;40.17;;;10.50;;
64297;SDS011;50639;53.270;7.956;2023-02-15T05:52:36;34.75;;;10.32;;
64297;SDS011;50639;53.270;7.956;2023-02-15T05:55:02;86.80;;;13.80;;
64297;SDS011;50639;53.270;7.956;2023-02-15T05:57:29;13.65;;;9.13;;
64297;SDS011;50639;53.270;7.956;2023-02-15T05:59:55;27.55;;;9.52;;
64297;SDS011;50639;53.270;7.956;2023-02-15T06:02:20;58.33;;;12.65;;
64297;SDS011;50639;53.270;7.956;2023-02-15T06:04:45;109.53;;;31.95;;
64297;SDS011;50639;53.270;7.956;2023-02-15T06:07:11;63.05;;;15.70;;
64297;SDS011;50639;53.270;7.956;2023-02-15T06:09:36;12.15;;;8.73;;
64297;SDS011;50639;53.270;7.956;2023-02-15T06:12:02;15.73;;;10.20;;
64297;SDS011;50639;53.270;7.956;2023-02-15T06:14:28;19.88;;;9.40;;
64297;SDS011;50639;53.270;7.956;2023-02-15T06:16:53;10.70;;;7.70;;
64297;SDS011;50639;53.270;7.956;2023-02-15T06:19:19;18.83;;;9.70;;
64297;SDS011;50639;53.270;7.956;2023-02-15T06:21:44;28.55;;;11.70;;
64297;SDS011;50639;53.270;7.956;2023-02-15T06:24:10;23.33;;;12.65;;
64297;SDS011;50639;53.270;7.956;2023-02-15T06:26:35;11.35;;;8.60;;
64297;SDS011;50639;53.270;7.956;2023-02-15T06:29:01;36.83;;;13.13;;
64297;SDS011;50639;53.270;7.956;2023-02-15T06:31:26;13.40;;;9.75;;
64297;SDS011;50639;53.270;7.956;2023-02-15T06:33:52;10.68;;;7.93;;
64297;SDS011;50639;53.270;7.956;2023-02-15T06:36:17;12.27;;;8.50;;
64297;SDS011;50639;53.270;7.956;2023-02-15T06:38:43;14.32;;;9.13;;
64297;SDS011;50639;53.270;7.956;2023-02-15T06:41:08;20.63;;;10.98;;
64297;SDS011;50639;53.270;7.956;2023-02-15T06:43:34;19.75;;;10.38;;
64297;SDS011;50639;53.270;7.956;2023-02-15T06:46:00;13.25;;;8.68;;
64297;SDS011;50639;53.270;7.956;2023-02-15T06:48:25;13.48;;;9.35;;
64297;SDS011;50639;53.270;7.956;2023-02-15T06:50:51;116.05;;;62.95;;
64297;SDS011;50639;53.270;7.956;2023-02-15T06:53:17;28.15;;;17.58;;
64297;SDS011;50639;53.270;7.956;2023-02-15T06:55:42;18.05;;;9.75;;
64297;SDS011;50639;53.270;7.956;2023-02-15T06:58:08;17.08;;;9.43;;
64297;SDS011;50639;53.270;7.956;2023-02-15T07:00:33;106.63;;;11.32;;
64297;SDS011;50639;53.270;7.956;2023-02-15T07:02:59;136.73;;;16.55;;
64297;SDS011;50639;53.270;7.956;2023-02-15T07:05:26;73.47;;;15.50;;
64297;SDS011;50639;53.270;7.956;2023-02-15T07:07:59;33.17;;;12.32;;
64297;SDS011;50639;53.270;7.956;2023-02-15T07:10:25;15.15;;;9.98;;
64297;SDS011;50639;53.270;7.956;2023-02-15T07:12:52;12.52;;;9.48;;
64297;SDS011;50639;53.270;7.956;2023-02-15T07:15:18;13.43;;;9.32;;
64297;SDS011;50639;53.270;7.956;2023-02-15T07:17:46;13.10;;;10.10;;
64297;SDS011;50639;53.270;7.956;2023-02-15T07:20:19;15.30;;;10.68;;
64297;SDS011;50639;53.270;7.956;2023-02-15T07:22:46;12.82;;;10.45;;
64297;SDS011;50639;53.270;7.956;2023-02-15T07:25:12;14.98;;;11.48;;
64297;SDS011;50639;53.270;7.956;2023-02-15T07:27:38;13.73;;;9.73;;
64297;SDS011;50639;53.270;7.956;2023-02-15T07:30:04;13.40;;;9.27;;
64297;SDS011;50639;53.270;7.956;2023-02-15T07:32:33;88.25;;;61.55;;
64297;SDS011;50639;53.270;7.956;2023-02-15T07:34:59;222.23;;;113.90;;
64297;SDS011;50639;53.270;7.956;2023-02-15T07:37:25;26.83;;;18.50;;
64297;SDS011;50639;53.270;7.956;2023-02-15T07:39:51;20.13;;;14.52;;
64297;SDS011;50639;53.270;7.956;2023-02-15T07:42:16;20.45;;;13.55;;
64297;SDS011;50639;53.270;7.956;2023-02-15T07:44:43;14.30;;;10.15;;
64297;SDS011;50639;53.270;7.956;2023-02-15T07:47:08;20.50;;;14.68;;
64297;SDS011;50639;53.270;7.956;2023-02-15T07:49:34;17.75;;;13.90;;
64297;SDS011;50639;53.270;7.956;2023-02-15T07:52:00;14.77;;;10.43;;
64297;SDS011;50639;53.270;7.956;2023-02-15T07:54:27;14.35;;;10.57;;
64297;SDS011;50639;53.270;7.956;2023-02-15T07:56:52;15.02;;;12.38;;
64297;SDS011;50639;53.270;7.956;2023-02-15T07:59:18;16.17;;;12.20;;
64297;SDS011;50639;53.270;7.956;2023-02-15T08:01:43;19.10;;;13.38;;
64297;SDS011;50639;53.270;7.956;2023-02-15T08:04:09;15.88;;;10.82;;
64297;SDS011;50639;53.270;7.956;2023-02-15T08:06:36;13.32;;;10.50;;
64297;SDS011;50639;53.270;7.956;2023-02-15T08:09:03;12.80;;;9.70;;
64297;SDS011;50639;53.270;7.956;2023-02-15T08:11:31;13.40;;;9.45;;
64297;SDS011;50639;53.270;7.956;2023-02-15T08:16:46;14.55;;;10.32;;
64297;SDS011;50639;53.270;7.956;2023-02-15T08:19:13;14.70;;;10.90;;
64297;SDS011;50639;53.270;7.956;2023-02-15T08:21:42;16.00;;;11.35;;
64297;SDS011;50639;53.270;7.956;2023-02-15T08:24:12;19.20;;;12.40;;
64297;SDS011;50639;53.270;7.956;2023-02-15T08:26:40;18.80;;;13.05;;
64297;SDS011;50639;53.270;7.956;2023-02-15T08:29:06;16.23;;;12.48;;
64297;SDS011;50639;53.270;7.956;2023-02-15T08:31:33;17.58;;;12.35;;
64297;SDS011;50639;53.270;7.956;2023-02-15T08:33:59;18.58;;;12.80;;
64297;SDS011;50639;53.270;7.956;2023-02-15T08:36:26;17.58;;;12.30;;
64297;SDS011;50639;53.270;7.956;2023-02-15T08:38:54;18.23;;;12.55;;
64297;SDS011;50639;53.270;7.956;2023-02-15T08:43:54;16.95;;;13.02;;
64297;SDS011;50639;53.270;7.956;2023-02-15T08:46:22;19.98;;;12.18;;
64297;SDS011;50639;53.270;7.956;2023-02-15T08:48:49;18.77;;;13.88;;
64297;SDS011;50639;53.270;7.956;2023-02-15T08:51:19;20.90;;;15.88;;
64297;SDS011;50639;53.270;7.956;2023-02-15T08:53:47;25.73;;;18.13;;
64297;SDS011;50639;53.270;7.956;2023-02-15T08:56:14;23.50;;;15.43;;
64297;SDS011;50639;53.270;7.956;2023-02-15T08:58:41;24.95;;;15.90;;
64297;SDS011;50639;53.270;7.956;2023-02-15T09:01:08;21.55;;;14.70;;
64297;SDS011;50639;53.270;7.956;2023-02-15T09:03:35;22.88;;;17.38;;
64297;SDS011;50639;53.270;7.956;2023-02-15T09:06:00;23.60;;;18.27;;
64297;SDS011;50639;53.270;7.956;2023-02-15T09:08:27;20.10;;;14.27;;
64297;SDS011;50639;53.270;7.956;2023-02-15T09:10:53;25.27;;;20.23;;
64297;SDS011;50639;53.270;7.956;2023-02-15T09:13:19;30.63;;;21.90;;
64297;SDS011;50639;53.270;7.956;2023-02-15T09:15:45;23.90;;;19.02;;
64297;SDS011;50639;53.270;7.956;2023-02-15T09:18:11;27.55;;;20.67;;
64297;SDS011;50639;53.270;7.956;2023-02-15T09:20:42;24.58;;;16.27;;
64297;SDS011;50639;53.270;7.956;2023-02-15T09:23:09;28.70;;;17.40;;
64297;SDS011;50639;53.270;7.956;2023-02-15T09:25:35;23.70;;;16.23;;
64297;SDS011;50639;53.270;7.956;2023-02-15T09:30:50;23.38;;;16.70;;
64297;SDS011;50639;53.270;7.956;2023-02-15T09:33:16;27.45;;;19.33;;
64297;SDS011;50639;53.270;7.956;2023-02-15T09:35:41;29.48;;;20.50;;
64297;SDS011;50639;53.270;7.956;2023-02-15T09:38:07;28.35;;;20.75;;
64297;SDS011;50639;53.270;7.956;2023-02-15T09:40:35;28.07;;;20.90;;
64297;SDS011;50639;53.270;7.956;2023-02-15T09:43:19;26.95;;;20.35;;
64297;SDS011;50639;53.270;7.956;2023-02-15T09:46:25;30.65;;;21.75;;
64297;SDS011;50639;53.270;7.956;2023-02-15T09:48:55;30.40;;;21.92;;
64297;SDS011;50639;53.270;7.956;2023-02-15T09:51:43;37.10;;;25.43;;
64297;SDS011;50639;53.270;7.956;2023-02-15T09:54:49;32.33;;;21.33;;
64297;SDS011;50639;53.270;7.956;2023-02-15T10:02:52;28.55;;;20.77;;
64297;SDS011;50639;53.270;7.956;2023-02-15T10:10:51;36.60;;;25.27;;
64297;SDS011;50639;53.270;7.956;2023-02-15T10:14:05;35.25;;;23.55;;
64297;SDS011;50639;53.270;7.956;2023-02-15T10:17:06;39.50;;;28.33;;
64297;SDS011;50639;53.270;7.956;2023-02-15T10:39:20;32.50;;;22.98;;
64297;SDS011;50639;53.270;7.956;2023-02-15T10:50:24;36.13;;;26.38;;
64297;SDS011;50639;53.270;7.956;2023-02-15T10:52:54;37.80;;;23.52;;
64297;SDS011;50639;53.270;7.956;2023-02-15T10:55:41;39.15;;;26.17;;
64297;SDS011;50639;53.270;7.956;2023-02-15T11:00:46;39.80;;;28.83;;
64297;SDS011;50639;53.270;7.956;2023-02-15T11:03:21;31.15;;;24.38;;
64297;SDS011;50639;53.270;7.956;2023-02-15T11:06:04;32.72;;;23.23;;
64297;SDS011;50639;53.270;7.956;2023-02-15T11:08:35;33.33;;;23.98;;
64297;SDS011;50639;53.270;7.956;2023-02-15T11:11:06;29.25;;;23.33;;
64297;SDS011;50639;53.270;7.956;2023-02-15T11:13:44;30.35;;;24.25;;
64297;SDS011;50639;53.270;7.956;2023-02-15T11:16:19;32.25;;;24.23;;
64297;SDS011;50639;53.270;7.956;2023-02-15T11:18:59;33.67;;;24.90;;
64297;SDS011;50639;53.270;7.956;2023-02-15T11:24:07;35.67;;;24.27;;
64297;SDS011;50639;53.270;7.956;2023-02-15T11:26:41;33.28;;;25.38;;
64297;SDS011;50639;53.270;7.956;2023-02-15T11:31:45;35.90;;;26.27;;
64297;SDS011;50639;53.270;7.956;2023-02-15T11:34:25;39.47;;;27.60;;
64297;SDS011;50639;53.270;7.956;2023-02-15T11:36:58;51.00;;;34.95;;
64297;SDS011;50639;53.270;7.956;2023-02-15T11:39:30;44.40;;;30.60;;
64297;SDS011;50639;53.270;7.956;2023-02-15T11:41:57;35.45;;;26.48;;
64297;SDS011;50639;53.270;7.956;2023-02-15T11:44:32;37.03;;;27.55;;
64297;SDS011;50639;53.270;7.956;2023-02-15T11:47:02;36.13;;;27.40;;
64297;SDS011;50639;53.270;7.956;2023-02-15T11:49:31;40.30;;;27.98;;
64297;SDS011;50639;53.270;7.956;2023-02-15T11:51:59;39.33;;;28.05;;
64297;SDS011;50639;53.270;7.956;2023-02-15T11:54:34;35.28;;;26.20;;
64297;SDS011;50639;53.270;7.956;2023-02-15T11:57:12;38.83;;;28.77;;
64297;SDS011;50639;53.270;7.956;2023-02-15T11:59:45;38.35;;;28.35;;
64297;SDS011;50639;53.270;7.956;2023-02-15T12:02:17;40.28;;;28.35;;
64297;SDS011;50639;53.270;7.956;2023-02-15T12:05:03;37.20;;;28.35;;
64297;SDS011;50639;53.270;7.956;2023-02-15T12:07:37;36.78;;;28.85;;
64297;SDS011;50639;53.270;7.956;2023-02-15T12:10:25;36.05;;;28.25;;
64297;SDS011;50639;53.270;7.956;2023-02-15T12:15:37;37.65;;;27.90;;
64297;SDS011;50639;53.270;7.956;2023-02-15T12:18:15;34.60;;;27.83;;
64297;SDS011;50639;53.270;7.956;2023-02-15T12:20:51;38.28;;;27.30;;
64297;SDS011;50639;53.270;7.956;2023-02-15T12:23:17;37.03;;;27.65;;
64297;SDS011;50639;53.270;7.956;2023-02-15T12:25:53;38.23;;;27.93;;
64297;SDS011;50639;53.270;7.956;2023-02-15T12:28:31;37.10;;;27.85;;
64297;SDS011;50639;53.270;7.956;2023-02-15T12:31:00;34.58;;;26.73;;
64297;SDS011;50639;53.270;7.956;2023-02-15T12:33:35;40.10;;;28.63;;
64297;SDS011;50639;53.270;7.956;2023-02-15T12:36:18;39.60;;;29.27;;
64297;SDS011;50639;53.270;7.956;2023-02-15T12:39:02;39.65;;;28.13;;
64297;SDS011;50639;53.270;7.956;2023-02-15T12:41:38;36.30;;;23.83;;
64297;SDS011;50639;53.270;7.956;2023-02-15T12:44:18;35.35;;;25.02;;
64297;SDS011;50639;53.270;7.956;2023-02-15T12:49:28;42.10;;;31.83;;
64297;SDS011;50639;53.270;7.956;2023-02-15T12:51:55;37.58;;;25.52;;
64297;SDS011;50639;53.270;7.956;2023-02-15T12:56:55;35.28;;;26.77;;
64297;SDS011;50639;53.270;7.956;2023-02-15T13:01:48;34.53;;;24.48;;
64297;SDS011;50639;53.270;7.956;2023-02-15T13:04:25;39.60;;;27.08;;
64297;SDS011;50639;53.270;7.956;2023-02-15T13:06:57;36.50;;;26.30;;
64297;SDS011;50639;53.270;7.956;2023-02-15T13:12:20;35.70;;;26.17;;
64297;SDS011;50639;53.270;7.956;2023-02-15T13:14:49;37.20;;;27.30;;
64297;SDS011;50639;53.270;7.956;2023-02-15T13:17:17;35.67;;;26.90;;
64297;SDS011;50639;53.270;7.956;2023-02-15T13:19:52;31.33;;;23.35;;
64297;SDS011;50639;53.270;7.956;2023-02-15T13:22:22;34.78;;;24.02;;
64297;SDS011;50639;53.270;7.956;2023-02-15T13:24:59;37.13;;;28.33;;
64297;SDS011;50639;53.270;7.956;2023-02-15T13:27:35;36.33;;;26.65;;
64297;SDS011;50639;53.270;7.956;2023-02-15T13:30:09;37.58;;;27.48;;
64297;SDS011;50639;53.270;7.956;2023-02-15T13:32:43;35.92;;;26.88;;
64297;SDS011;50639;53.270;7.956;2023-02-15T13:35:14;38.40;;;26.00;;
64297;SDS011;50639;53.270;7.956;2023-02-15T13:37:57;34.88;;;25.38;;
64297;SDS011;50639;53.270;7.956;2023-02-15T13:40:33;35.95;;;27.42;;
64297;SDS011;50639;53.270;7.956;2023-02-15T13:45:54;37.47;;;25.85;;
64297;SDS011;50639;53.270;7.956;2023-02-15T13:48:52;33.45;;;25.80;;
64297;SDS011;50639;53.270;7.956;2023-02-15T13:51:45;39.83;;;26.77;;
64297;SDS011;50639;53.270;7.956;2023-02-15T13:57:26;35.75;;;26.02;;
64297;SDS011;50639;53.270;7.956;2023-02-15T14:00:15;36.63;;;26.75;;
64297;SDS011;50639;53.270;7.956;2023-02-15T14:17:20;36.85;;;26.05;;
64297;SDS011;50639;53.270;7.956;2023-02-15T14:19:44;39.90;;;27.95;;
64297;SDS011;50639;53.270;7.956;2023-02-15T14:22:18;38.25;;;25.98;;
64297;SDS011;50639;53.270;7.956;2023-02-15T14:25:06;38.92;;;25.95;;
64297;SDS011;50639;53.270;7.956;2023-02-15T14:28:05;37.40;;;26.70;;
64297;SDS011;50639;53.270;7.956;2023-02-15T14:30:55;35.78;;;25.02;;
64297;SDS011;50639;53.270;7.956;2023-02-15T14:35:56;39.45;;;26.75;;
64297;SDS011;50639;53.270;7.956;2023-02-15T14:38:40;37.60;;;25.60;;
64297;SDS011;50639;53.270;7.956;2023-02-15T14:41:35;38.45;;;27.20;;
64297;SDS011;50639;53.270;7.956;2023-02-15T14:49:27;39.97;;;26.95;;
64297;SDS011;50639;53.270;7.956;2023-02-15T14:52:08;38.15;;;26.80;;
64297;SDS011;50639;53.270;7.956;2023-02-15T15:02:50;38.15;;;27.58;;
64297;SDS011;50639;53.270;7.956;2023-02-15T15:05:34;39.70;;;28.55;;
64297;SDS011;50639;53.270;7.956;2023-02-15T15:08:20;41.28;;;27.50;;
64297;SDS011;50639;53.270;7.956;2023-02-15T15:11:46;38.45;;;26.08;;
64297;SDS011;50639;53.270;7.956;2023-02-15T15:14:09;45.13;;;28.42;;
64297;SDS011;50639;53.270;7.956;2023-02-15T15:16:55;39.22;;;26.25;;
64297;SDS011;50639;53.270;7.956;2023-02-15T15:27:56;39.80;;;26.17;;
64297;SDS011;50639;53.270;7.956;2023-02-15T15:49:01;50.05;;;33.13;;
64297;SDS011;50639;53.270;7.956;2023-02-15T15:51:33;67.07;;;39.95;;
64297;SDS011;50639;53.270;7.956;2023-02-15T15:53:58;53.90;;;32.85;;
64297;SDS011;50639;53.270;7.956;2023-02-15T15:56:33;44.97;;;28.38;;
64297;SDS011;50639;53.270;7.956;2023-02-15T15:59:05;42.65;;;30.42;;
64297;SDS011;50639;53.270;7.956;2023-02-15T16:01:37;44.20;;;28.40;;
64297;SDS011;50639;53.270;7.956;2023-02-15T16:04:11;38.60;;;26.30;;
64297;SDS011;50639;53.270;7.956;2023-02-15T16:06:38;40.05;;;27.13;;
64297;SDS011;50639;53.270;7.956;2023-02-15T16:09:18;40.88;;;27.85;;
64297;SDS011;50639;53.270;7.956;2023-02-15T16:11:57;41.22;;;26.95;;
64297;SDS011;50639;53.270;7.956;2023-02-15T16:14:30;39.17;;;25.65;;
64297;SDS011;50639;53.270;7.956;2023-02-15T16:17:00;39.65;;;25.80;;
64297;SDS011;50639;53.270;7.956;2023-02-15T16:19:38;45.85;;;29.38;;
64297;SDS011;50639;53.270;7.956;2023-02-15T16:22:13;37.47;;;26.35;;
64297;SDS011;50639;53.270;7.956;2023-02-15T16:24:52;39.40;;;25.60;;
64297;SDS011;50639;53.270;7.956;2023-02-15T16:27:38;36.08;;;24.30;;
64297;SDS011;50639;53.270;7.956;2023-02-15T16:33:16;40.70;;;25.08;;
64297;SDS011;50639;53.270;7.956;2023-02-15T16:35:55;37.47;;;24.43;;
64297;SDS011;50639;53.270;7.956;2023-02-15T16:41:13;36.33;;;25.67;;
64297;SDS011;50639;53.270;7.956;2023-02-15T16:43:46;36.70;;;23.85;;
64297;SDS011;50639;53.270;7.956;2023-02-15T16:51:44;34.15;;;24.27;;
64297;SDS011;50639;53.270;7.956;2023-02-15T16:54:19;36.92;;;24.65;;
64297;SDS011;50639;53.270;7.956;2023-02-15T16:56:49;38.63;;;23.83;;
64297;SDS011;50639;53.270;7.956;2023-02-15T17:02:03;33.47;;;22.90;;
64297;SDS011;50639;53.270;7.956;2023-02-15T17:04:31;38.63;;;23.00;;
64297;SDS011;50639;53.270;7.956;2023-02-15T17:09:32;37.03;;;23.77;;
64297;SDS011;50639;53.270;7.956;2023-02-15T17:11:58;37.58;;;25.02;;
64297;SDS011;50639;53.270;7.956;2023-02-15T17:14:30;40.85;;;30.20;;
64297;SDS011;50639;53.270;7.956;2023-02-15T17:17:01;48.22;;;32.60;;
64297;SDS011;50639;53.270;7.956;2023-02-15T17:19:33;39.00;;;26.20;;
64297;SDS011;50639;53.270;7.956;2023-02-15T17:22:16;35.33;;;25.20;;
64297;SDS011;50639;53.270;7.956;2023-02-15T17:24:44;42.25;;;25.70;;
64297;SDS011;50639;53.270;7.956;2023-02-15T17:27:17;38.25;;;26.85;;
64297;SDS011;50639;53.270;7.956;2023-02-15T17:32:24;42.35;;;28.80;;
64297;SDS011;50639;53.270;7.956;2023-02-15T17:35:07;71.30;;;50.55;;
64297;SDS011;50639;53.270;7.956;2023-02-15T17:37:45;42.05;;;28.88;;
64297;SDS011;50639;53.270;7.956;2023-02-15T17:42:51;48.47;;;33.03;;
64297;SDS011;50639;53.270;7.956;2023-02-15T17:45:17;37.33;;;25.50;;
64297;SDS011;50639;53.270;7.956;2023-02-15T17:47:43;35.53;;;24.73;;
64297;SDS011;50639;53.270;7.956;2023-02-15T17:52:42;44.33;;;26.25;;
64297;SDS011;50639;53.270;7.956;2023-02-15T17:55:12;34.30;;;24.65;;
64297;SDS011;50639;53.270;7.956;2023-02-15T17:57:58;36.08;;;24.38;;
64297;SDS011;50639;53.270;7.956;2023-02-15T18:00:24;37.88;;;23.58;;
64297;SDS011;50639;53.270;7.956;2023-02-15T18:03:09;36.35;;;24.83;;
64297;SDS011;50639;53.270;7.956;2023-02-15T18:05:54;39.97;;;28.20;;
64297;SDS011;50639;53.270;7.956;2023-02-15T18:08:39;35.22;;;25.05;;